sensor_id;sensor_type;location;lat;lon;timestamp;P1;durP1;ratioP1;P2;durP2;ratioP2
36829;SDS011;22767;47.328;9.640;2022-10-18T00:01:51;11.32;;;2.70;;
36829;SDS011;22767;47.328;9.640;2022-10-18T00:04:37;6.43;;;2.17;;
36829;SDS011;22767;47.328;9.640;2022-10-18T00:07:24;5.15;;;2.17;;
36829;SDS011;22767;47.328;9.640;2022-10-18T00:10:10;5.47;;;2.30;;
36829;SDS011;22767;47.328;9.640;2022-10-18T00:12:57;6.72;;;1.80;;
36829;SDS011;22767;47.328;9.640;2022-10-18T00:15:47;6.10;;;1.92;;
36829;SDS011;22767;47.328;9.640;2022-10-18T00:18:34;5.85;;;2.30;;
36829;SDS011;22767;47.328;9.640;2022-10-18T00:21:21;10.88;;;2.22;;
36829;SDS011;22767;47.328;9.640;2022-10-18T00:24:08;8.85;;;2.00;;
36829;SDS011;22767;47.328;9.640;2022-10-18T00:26:54;10.90;;;2.20;;
36829;SDS011;22767;47.328;9.640;2022-10-18T00:29:40;6.28;;;2.00;;
36829;SDS011;22767;47.328;9.640;2022-10-18T00:32:27;8.57;;;2.50;;
36829;SDS011;22767;47.328;9.640;2022-10-18T00:35:13;5.50;;;2.22;;
36829;SDS011;22767;47.328;9.640;2022-10-18T00:38:00;7.32;;;2.00;;
36829;SDS011;22767;47.328;9.640;2022-10-18T00:40:46;6.22;;;2.22;;
36829;SDS011;22767;47.328;9.640;2022-10-18T00:43:49;7.93;;;2.65;;
36829;SDS011;22767;47.328;9.640;2022-10-18T00:46:36;9.30;;;2.00;;
36829;SDS011;22767;47.328;9.640;2022-10-18T00:49:28;10.77;;;2.63;;
36829;SDS011;22767;47.328;9.640;2022-10-18T00:52:33;10.70;;;2.20;;
36829;SDS011;22767;47.328;9.640;2022-10-18T00:55:20;5.47;;;1.63;;
36829;SDS011;22767;47.328;9.640;2022-10-18T00:58:07;9.38;;;1.60;;
36829;SDS011;22767;47.328;9.640;2022-10-18T01:00:54;11.00;;;2.60;;
36829;SDS011;22767;47.328;9.640;2022-10-18T01:03:41;8.38;;;2.40;;
36829;SDS011;22767;47.328;9.640;2022-10-18T01:06:27;9.55;;;2.10;;
36829;SDS011;22767;47.328;9.640;2022-10-18T01:21:09;6.72;;;2.47;;
36829;SDS011;22767;47.328;9.640;2022-10-18T01:38:46;6.22;;;2.05;;
36829;SDS011;22767;47.328;9.640;2022-10-18T01:41:34;8.60;;;2.08;;
36829;SDS011;22767;47.328;9.640;2022-10-18T01:44:23;6.32;;;1.85;;
36829;SDS011;22767;47.328;9.640;2022-10-18T01:47:10;5.70;;;1.60;;
36829;SDS011;22767;47.328;9.640;2022-10-18T01:49:59;3.28;;;1.73;;
36829;SDS011;22767;47.328;9.640;2022-10-18T01:52:46;6.70;;;2.53;;
36829;SDS011;22767;47.328;9.640;2022-10-18T01:55:36;4.50;;;2.10;;
36829;SDS011;22767;47.328;9.640;2022-10-18T01:58:28;4.05;;;2.00;;
36829;SDS011;22767;47.328;9.640;2022-10-18T02:01:24;5.20;;;1.90;;
36829;SDS011;22767;47.328;9.640;2022-10-18T02:07:30;5.43;;;2.10;;
36829;SDS011;22767;47.328;9.640;2022-10-18T02:13:24;8.43;;;2.22;;
36829;SDS011;22767;47.328;9.640;2022-10-18T02:16:13;12.27;;;2.03;;
36829;SDS011;22767;47.328;9.640;2022-10-18T02:19:05;7.82;;;1.90;;
36829;SDS011;22767;47.328;9.640;2022-10-18T02:21:55;6.82;;;2.13;;
36829;SDS011;22767;47.328;9.640;2022-10-18T02:24:47;7.38;;;2.08;;
36829;SDS011;22767;47.328;9.640;2022-10-18T02:27:35;8.00;;;2.17;;
36829;SDS011;22767;47.328;9.640;2022-10-18T02:30:22;6.47;;;2.17;;
36829;SDS011;22767;47.328;9.640;2022-10-18T02:33:16;6.43;;;2.33;;
36829;SDS011;22767;47.328;9.640;2022-10-18T02:36:06;10.90;;;2.50;;
36829;SDS011;22767;47.328;9.640;2022-10-18T02:38:57;10.07;;;2.85;;
36829;SDS011;22767;47.328;9.640;2022-10-18T02:41:44;12.23;;;4.63;;
36829;SDS011;22767;47.328;9.640;2022-10-18T02:44:31;6.25;;;3.60;;
36829;SDS011;22767;47.328;9.640;2022-10-18T02:47:17;7.88;;;3.65;;
36829;SDS011;22767;47.328;9.640;2022-10-18T02:50:04;13.63;;;2.80;;
36829;SDS011;22767;47.328;9.640;2022-10-18T02:52:50;11.35;;;3.08;;
36829;SDS011;22767;47.328;9.640;2022-10-18T02:55:37;7.05;;;2.75;;
36829;SDS011;22767;47.328;9.640;2022-10-18T02:58:23;6.85;;;2.50;;
36829;SDS011;22767;47.328;9.640;2022-10-18T03:01:09;8.75;;;2.78;;
36829;SDS011;22767;47.328;9.640;2022-10-18T03:03:56;9.82;;;2.13;;
36829;SDS011;22767;47.328;9.640;2022-10-18T03:06:42;8.55;;;2.45;;
36829;SDS011;22767;47.328;9.640;2022-10-18T03:09:29;7.78;;;2.50;;
36829;SDS011;22767;47.328;9.640;2022-10-18T03:12:15;6.13;;;2.50;;
36829;SDS011;22767;47.328;9.640;2022-10-18T03:15:02;3.08;;;1.90;;
36829;SDS011;22767;47.328;9.640;2022-10-18T03:17:48;8.80;;;2.20;;
36829;SDS011;22767;47.328;9.640;2022-10-18T03:20:35;5.78;;;2.25;;
36829;SDS011;22767;47.328;9.640;2022-10-18T03:23:21;3.88;;;2.28;;
36829;SDS011;22767;47.328;9.640;2022-10-18T03:26:08;3.95;;;1.90;;
36829;SDS011;22767;47.328;9.640;2022-10-18T03:28:54;3.20;;;2.20;;
36829;SDS011;22767;47.328;9.640;2022-10-18T03:31:41;7.40;;;2.80;;
36829;SDS011;22767;47.328;9.640;2022-10-18T03:34:27;3.03;;;2.00;;
36829;SDS011;22767;47.328;9.640;2022-10-18T03:37:13;4.13;;;1.92;;
36829;SDS011;22767;47.328;9.640;2022-10-18T03:40:00;3.45;;;1.70;;
36829;SDS011;22767;47.328;9.640;2022-10-18T03:42:46;3.35;;;2.38;;
36829;SDS011;22767;47.328;9.640;2022-10-18T03:45:33;4.53;;;2.03;;
36829;SDS011;22767;47.328;9.640;2022-10-18T03:48:19;7.78;;;2.42;;
36829;SDS011;22767;47.328;9.640;2022-10-18T03:51:06;4.00;;;1.85;;
36829;SDS011;22767;47.328;9.640;2022-10-18T03:53:52;4.15;;;2.38;;
36829;SDS011;22767;47.328;9.640;2022-10-18T03:56:39;7.97;;;2.72;;
36829;SDS011;22767;47.328;9.640;2022-10-18T03:59:25;4.18;;;2.20;;
36829;SDS011;22767;47.328;9.640;2022-10-18T04:02:11;5.22;;;2.50;;
36829;SDS011;22767;47.328;9.640;2022-10-18T04:04:58;4.47;;;2.58;;
36829;SDS011;22767;47.328;9.640;2022-10-18T04:07:44;3.80;;;2.40;;
36829;SDS011;22767;47.328;9.640;2022-10-18T04:10:31;4.88;;;2.42;;
36829;SDS011;22767;47.328;9.640;2022-10-18T04:13:17;4.50;;;2.65;;
36829;SDS011;22767;47.328;9.640;2022-10-18T04:16:03;7.93;;;2.90;;
36829;SDS011;22767;47.328;9.640;2022-10-18T04:18:50;9.98;;;2.55;;
36829;SDS011;22767;47.328;9.640;2022-10-18T04:21:36;11.45;;;2.97;;
36829;SDS011;22767;47.328;9.640;2022-10-18T04:24:23;5.18;;;2.40;;
36829;SDS011;22767;47.328;9.640;2022-10-18T04:27:09;8.32;;;2.65;;
36829;SDS011;22767;47.328;9.640;2022-10-18T04:29:56;4.03;;;2.42;;
36829;SDS011;22767;47.328;9.640;2022-10-18T04:32:42;10.23;;;2.88;;
36829;SDS011;22767;47.328;9.640;2022-10-18T04:35:28;5.10;;;2.10;;
36829;SDS011;22767;47.328;9.640;2022-10-18T04:38:15;6.75;;;2.20;;
36829;SDS011;22767;47.328;9.640;2022-10-18T04:41:01;8.73;;;3.03;;
36829;SDS011;22767;47.328;9.640;2022-10-18T04:43:48;7.43;;;2.92;;
36829;SDS011;22767;47.328;9.640;2022-10-18T04:46:34;5.15;;;2.75;;
36829;SDS011;22767;47.328;9.640;2022-10-18T04:49:20;5.70;;;2.40;;
36829;SDS011;22767;47.328;9.640;2022-10-18T04:52:07;7.97;;;2.58;;
36829;SDS011;22767;47.328;9.640;2022-10-18T04:54:53;4.88;;;2.38;;
36829;SDS011;22767;47.328;9.640;2022-10-18T04:57:40;8.27;;;2.38;;
36829;SDS011;22767;47.328;9.640;2022-10-18T05:00:26;5.82;;;2.50;;
36829;SDS011;22767;47.328;9.640;2022-10-18T05:03:13;6.22;;;1.88;;
36829;SDS011;22767;47.328;9.640;2022-10-18T05:05:59;3.45;;;1.88;;
36829;SDS011;22767;47.328;9.640;2022-10-18T05:08:46;6.30;;;2.05;;
36829;SDS011;22767;47.328;9.640;2022-10-18T05:11:32;6.15;;;2.10;;
36829;SDS011;22767;47.328;9.640;2022-10-18T05:14:19;4.35;;;2.05;;
36829;SDS011;22767;47.328;9.640;2022-10-18T05:17:05;4.65;;;2.25;;
36829;SDS011;22767;47.328;9.640;2022-10-18T05:19:52;4.50;;;2.05;;
36829;SDS011;22767;47.328;9.640;2022-10-18T05:22:38;4.70;;;2.28;;
36829;SDS011;22767;47.328;9.640;2022-10-18T05:25:25;5.68;;;2.22;;
36829;SDS011;22767;47.328;9.640;2022-10-18T05:28:11;5.70;;;2.20;;
36829;SDS011;22767;47.328;9.640;2022-10-18T05:31:01;3.50;;;1.75;;
36829;SDS011;22767;47.328;9.640;2022-10-18T05:33:47;2.60;;;1.90;;
36829;SDS011;22767;47.328;9.640;2022-10-18T05:36:33;3.88;;;2.17;;
36829;SDS011;22767;47.328;9.640;2022-10-18T05:39:20;7.47;;;2.22;;
36829;SDS011;22767;47.328;9.640;2022-10-18T05:42:06;2.88;;;1.80;;
36829;SDS011;22767;47.328;9.640;2022-10-18T05:44:53;5.07;;;1.95;;
36829;SDS011;22767;47.328;9.640;2022-10-18T05:47:39;7.00;;;2.40;;
36829;SDS011;22767;47.328;9.640;2022-10-18T05:50:26;6.15;;;1.98;;
36829;SDS011;22767;47.328;9.640;2022-10-18T05:53:12;4.85;;;2.65;;
36829;SDS011;22767;47.328;9.640;2022-10-18T05:55:59;3.58;;;1.85;;
36829;SDS011;22767;47.328;9.640;2022-10-18T05:58:48;13.52;;;3.15;;
36829;SDS011;22767;47.328;9.640;2022-10-18T06:01:35;3.22;;;1.70;;
36829;SDS011;22767;47.328;9.640;2022-10-18T06:04:22;3.10;;;1.83;;
36829;SDS011;22767;47.328;9.640;2022-10-18T06:07:09;4.38;;;1.70;;
36829;SDS011;22767;47.328;9.640;2022-10-18T06:09:56;3.58;;;1.63;;
36829;SDS011;22767;47.328;9.640;2022-10-18T06:12:42;3.70;;;1.70;;
36829;SDS011;22767;47.328;9.640;2022-10-18T06:15:28;4.95;;;1.80;;
36829;SDS011;22767;47.328;9.640;2022-10-18T06:18:15;5.93;;;2.00;;
36829;SDS011;22767;47.328;9.640;2022-10-18T06:21:01;4.70;;;1.85;;
36829;SDS011;22767;47.328;9.640;2022-10-18T06:23:51;4.88;;;1.80;;
36829;SDS011;22767;47.328;9.640;2022-10-18T06:26:38;4.28;;;1.67;;
36829;SDS011;22767;47.328;9.640;2022-10-18T06:29:24;2.50;;;1.70;;
36829;SDS011;22767;47.328;9.640;2022-10-18T06:32:11;5.95;;;1.98;;
36829;SDS011;22767;47.328;9.640;2022-10-18T06:34:57;5.80;;;1.95;;
36829;SDS011;22767;47.328;9.640;2022-10-18T06:37:44;10.30;;;2.38;;
36829;SDS011;22767;47.328;9.640;2022-10-18T06:40:30;3.85;;;1.80;;
36829;SDS011;22767;47.328;9.640;2022-10-18T06:43:22;6.63;;;1.75;;
36829;SDS011;22767;47.328;9.640;2022-10-18T06:46:09;3.45;;;1.80;;
36829;SDS011;22767;47.328;9.640;2022-10-18T06:48:55;8.23;;;1.85;;
36829;SDS011;22767;47.328;9.640;2022-10-18T06:51:42;5.30;;;1.60;;
36829;SDS011;22767;47.328;9.640;2022-10-18T06:54:29;3.13;;;1.40;;
36829;SDS011;22767;47.328;9.640;2022-10-18T06:57:15;5.97;;;1.63;;
36829;SDS011;22767;47.328;9.640;2022-10-18T07:00:02;5.05;;;1.65;;
36829;SDS011;22767;47.328;9.640;2022-10-18T07:02:49;2.83;;;1.70;;
36829;SDS011;22767;47.328;9.640;2022-10-18T07:05:35;4.05;;;1.60;;
36829;SDS011;22767;47.328;9.640;2022-10-18T07:08:22;4.70;;;1.80;;
36829;SDS011;22767;47.328;9.640;2022-10-18T07:11:12;3.63;;;1.67;;
36829;SDS011;22767;47.328;9.640;2022-10-18T07:13:59;8.35;;;1.95;;
36829;SDS011;22767;47.328;9.640;2022-10-18T07:16:47;4.30;;;1.75;;
36829;SDS011;22767;47.328;9.640;2022-10-18T07:19:33;5.20;;;1.70;;
36829;SDS011;22767;47.328;9.640;2022-10-18T07:22:20;5.45;;;2.17;;
36829;SDS011;22767;47.328;9.640;2022-10-18T07:25:06;4.25;;;1.45;;
36829;SDS011;22767;47.328;9.640;2022-10-18T07:27:53;4.13;;;2.20;;
36829;SDS011;22767;47.328;9.640;2022-10-18T07:30:39;6.93;;;2.85;;
36829;SDS011;22767;47.328;9.640;2022-10-18T07:33:27;9.82;;;3.38;;
36829;SDS011;22767;47.328;9.640;2022-10-18T07:36:14;9.02;;;2.63;;
36829;SDS011;22767;47.328;9.640;2022-10-18T07:39:00;6.03;;;2.50;;
36829;SDS011;22767;47.328;9.640;2022-10-18T07:41:46;6.28;;;3.03;;
36829;SDS011;22767;47.328;9.640;2022-10-18T07:44:33;7.40;;;3.25;;
36829;SDS011;22767;47.328;9.640;2022-10-18T07:47:19;10.15;;;2.75;;
36829;SDS011;22767;47.328;9.640;2022-10-18T07:50:06;6.80;;;2.33;;
36829;SDS011;22767;47.328;9.640;2022-10-18T07:52:52;7.93;;;2.03;;
36829;SDS011;22767;47.328;9.640;2022-10-18T07:55:39;5.57;;;2.28;;
36829;SDS011;22767;47.328;9.640;2022-10-18T07:58:26;8.05;;;2.10;;
36829;SDS011;22767;47.328;9.640;2022-10-18T08:01:13;7.07;;;2.30;;
36829;SDS011;22767;47.328;9.640;2022-10-18T08:03:59;6.65;;;2.17;;
36829;SDS011;22767;47.328;9.640;2022-10-18T08:06:46;5.95;;;2.60;;
36829;SDS011;22767;47.328;9.640;2022-10-18T08:09:32;4.03;;;2.10;;
36829;SDS011;22767;47.328;9.640;2022-10-18T08:12:18;7.35;;;2.75;;
36829;SDS011;22767;47.328;9.640;2022-10-18T08:15:05;4.93;;;2.03;;
36829;SDS011;22767;47.328;9.640;2022-10-18T08:17:51;4.72;;;2.10;;
36829;SDS011;22767;47.328;9.640;2022-10-18T08:20:42;5.43;;;2.30;;
36829;SDS011;22767;47.328;9.640;2022-10-18T08:23:28;11.23;;;2.80;;
36829;SDS011;22767;47.328;9.640;2022-10-18T08:26:16;7.85;;;2.63;;
36829;SDS011;22767;47.328;9.640;2022-10-18T08:29:03;9.27;;;2.63;;
36829;SDS011;22767;47.328;9.640;2022-10-18T08:31:49;6.25;;;2.20;;
36829;SDS011;22767;47.328;9.640;2022-10-18T08:34:35;8.07;;;2.40;;
36829;SDS011;22767;47.328;9.640;2022-10-18T08:37:22;10.63;;;2.65;;
36829;SDS011;22767;47.328;9.640;2022-10-18T08:40:09;7.43;;;2.35;;
36829;SDS011;22767;47.328;9.640;2022-10-18T08:43:06;5.82;;;2.28;;
36829;SDS011;22767;47.328;9.640;2022-10-18T08:45:54;8.38;;;3.22;;
36829;SDS011;22767;47.328;9.640;2022-10-18T08:48:42;9.93;;;2.67;;
36829;SDS011;22767;47.328;9.640;2022-10-18T08:51:34;11.18;;;3.10;;
36829;SDS011;22767;47.328;9.640;2022-10-18T08:57:09;6.53;;;2.35;;
36829;SDS011;22767;47.328;9.640;2022-10-18T08:59:58;7.30;;;2.40;;
36829;SDS011;22767;47.328;9.640;2022-10-18T09:14:20;7.03;;;2.83;;
36829;SDS011;22767;47.328;9.640;2022-10-18T09:17:30;7.25;;;2.63;;
36829;SDS011;22767;47.328;9.640;2022-10-18T09:20:21;5.32;;;2.22;;
36829;SDS011;22767;47.328;9.640;2022-10-18T09:25:57;4.50;;;2.33;;
36829;SDS011;22767;47.328;9.640;2022-10-18T09:34:30;8.18;;;2.78;;
36829;SDS011;22767;47.328;9.640;2022-10-18T09:37:22;5.13;;;2.30;;
36829;SDS011;22767;47.328;9.640;2022-10-18T09:40:20;6.25;;;2.45;;
36829;SDS011;22767;47.328;9.640;2022-10-18T09:43:17;12.60;;;2.78;;
36829;SDS011;22767;47.328;9.640;2022-10-18T09:46:05;4.28;;;2.25;;
36829;SDS011;22767;47.328;9.640;2022-10-18T09:48:55;8.13;;;2.70;;
36829;SDS011;22767;47.328;9.640;2022-10-18T09:51:43;4.03;;;2.53;;
36829;SDS011;22767;47.328;9.640;2022-10-18T09:54:32;6.10;;;2.00;;
36829;SDS011;22767;47.328;9.640;2022-10-18T09:57:30;8.85;;;2.42;;
36829;SDS011;22767;47.328;9.640;2022-10-18T10:00:21;7.50;;;2.15;;
36829;SDS011;22767;47.328;9.640;2022-10-18T10:03:10;7.60;;;2.20;;
36829;SDS011;22767;47.328;9.640;2022-10-18T10:06:01;4.32;;;1.55;;
36829;SDS011;22767;47.328;9.640;2022-10-18T10:08:52;7.78;;;2.10;;
36829;SDS011;22767;47.328;9.640;2022-10-18T10:11:42;8.55;;;2.17;;
36829;SDS011;22767;47.328;9.640;2022-10-18T10:14:30;3.65;;;1.80;;
36829;SDS011;22767;47.328;9.640;2022-10-18T10:17:27;4.25;;;2.08;;
36829;SDS011;22767;47.328;9.640;2022-10-18T10:20:19;8.38;;;2.42;;
36829;SDS011;22767;47.328;9.640;2022-10-18T10:23:18;7.00;;;2.50;;
36829;SDS011;22767;47.328;9.640;2022-10-18T10:26:06;10.20;;;2.45;;
36829;SDS011;22767;47.328;9.640;2022-10-18T10:32:11;8.13;;;2.40;;
36829;SDS011;22767;47.328;9.640;2022-10-18T10:34:58;2.97;;;2.20;;
36829;SDS011;22767;47.328;9.640;2022-10-18T10:37:45;6.10;;;2.45;;
36829;SDS011;22767;47.328;9.640;2022-10-18T10:40:39;7.57;;;2.40;;
36829;SDS011;22767;47.328;9.640;2022-10-18T10:43:31;6.43;;;2.25;;
36829;SDS011;22767;47.328;9.640;2022-10-18T10:46:18;6.55;;;2.25;;
36829;SDS011;22767;47.328;9.640;2022-10-18T10:49:05;6.25;;;2.40;;
36829;SDS011;22767;47.328;9.640;2022-10-18T10:51:55;6.78;;;1.98;;
36829;SDS011;22767;47.328;9.640;2022-10-18T10:54:43;6.13;;;2.42;;
36829;SDS011;22767;47.328;9.640;2022-10-18T10:57:30;3.22;;;2.10;;
36829;SDS011;22767;47.328;9.640;2022-10-18T11:03:24;9.57;;;2.45;;
36829;SDS011;22767;47.328;9.640;2022-10-18T11:06:11;5.93;;;2.33;;
36829;SDS011;22767;47.328;9.640;2022-10-18T11:09:11;6.10;;;2.08;;
36829;SDS011;22767;47.328;9.640;2022-10-18T11:12:07;5.40;;;2.33;;
36829;SDS011;22767;47.328;9.640;2022-10-18T11:21:03;4.40;;;2.30;;
36829;SDS011;22767;47.328;9.640;2022-10-18T11:23:55;5.30;;;2.13;;
36829;SDS011;22767;47.328;9.640;2022-10-18T11:26:48;4.90;;;2.20;;
36829;SDS011;22767;47.328;9.640;2022-10-18T11:29:39;3.73;;;1.90;;
36829;SDS011;22767;47.328;9.640;2022-10-18T11:44:11;5.82;;;2.33;;
36829;SDS011;22767;47.328;9.640;2022-10-18T12:04:51;6.15;;;2.25;;
36829;SDS011;22767;47.328;9.640;2022-10-18T12:07:42;6.32;;;2.70;;
36829;SDS011;22767;47.328;9.640;2022-10-18T12:10:31;7.75;;;2.80;;
36829;SDS011;22767;47.328;9.640;2022-10-18T12:13:42;3.50;;;2.47;;
36829;SDS011;22767;47.328;9.640;2022-10-18T12:16:29;3.88;;;2.47;;
36829;SDS011;22767;47.328;9.640;2022-10-18T12:19:22;10.75;;;2.80;;
36829;SDS011;22767;47.328;9.640;2022-10-18T12:25:27;5.97;;;2.83;;
36829;SDS011;22767;47.328;9.640;2022-10-18T12:31:33;4.30;;;3.08;;
36829;SDS011;22767;47.328;9.640;2022-10-18T12:34:24;6.38;;;2.88;;
36829;SDS011;22767;47.328;9.640;2022-10-18T12:42:48;4.35;;;2.97;;
36829;SDS011;22767;47.328;9.640;2022-10-18T12:45:45;4.53;;;2.80;;
36829;SDS011;22767;47.328;9.640;2022-10-18T12:48:37;3.30;;;2.53;;
36829;SDS011;22767;47.328;9.640;2022-10-18T12:51:24;4.25;;;3.17;;
36829;SDS011;22767;47.328;9.640;2022-10-18T12:54:10;10.40;;;3.30;;
36829;SDS011;22767;47.328;9.640;2022-10-18T12:56:58;7.38;;;2.88;;
36829;SDS011;22767;47.328;9.640;2022-10-18T12:59:45;9.73;;;2.80;;
36829;SDS011;22767;47.328;9.640;2022-10-18T13:02:31;4.53;;;2.83;;
36829;SDS011;22767;47.328;9.640;2022-10-18T13:08:37;6.00;;;3.13;;
36829;SDS011;22767;47.328;9.640;2022-10-18T13:11:30;7.22;;;2.80;;
36829;SDS011;22767;47.328;9.640;2022-10-18T13:14:32;8.02;;;2.63;;
36829;SDS011;22767;47.328;9.640;2022-10-18T13:20:13;3.22;;;2.20;;
36829;SDS011;22767;47.328;9.640;2022-10-18T13:28:39;7.25;;;2.65;;
36829;SDS011;22767;47.328;9.640;2022-10-18T13:31:38;7.53;;;2.80;;
36829;SDS011;22767;47.328;9.640;2022-10-18T13:34:30;8.38;;;2.60;;
36829;SDS011;22767;47.328;9.640;2022-10-18T13:37:23;8.13;;;2.40;;
36829;SDS011;22767;47.328;9.640;2022-10-18T13:40:22;7.18;;;3.00;;
36829;SDS011;22767;47.328;9.640;2022-10-18T13:46:14;4.78;;;2.75;;
36829;SDS011;22767;47.328;9.640;2022-10-18T13:58:22;5.30;;;3.03;;
36829;SDS011;22767;47.328;9.640;2022-10-18T14:06:58;10.00;;;3.17;;
36829;SDS011;22767;47.328;9.640;2022-10-18T14:09:52;6.00;;;3.40;;
36829;SDS011;22767;47.328;9.640;2022-10-18T14:12:39;7.60;;;3.20;;
36829;SDS011;22767;47.328;9.640;2022-10-18T14:15:28;5.82;;;3.15;;
36829;SDS011;22767;47.328;9.640;2022-10-18T14:18:30;8.15;;;2.90;;
36829;SDS011;22767;47.328;9.640;2022-10-18T14:21:18;6.85;;;2.95;;
36829;SDS011;22767;47.328;9.640;2022-10-18T14:24:09;9.80;;;2.92;;
36829;SDS011;22767;47.328;9.640;2022-10-18T14:29:46;3.78;;;2.65;;
36829;SDS011;22767;47.328;9.640;2022-10-18T14:32:33;10.85;;;3.17;;
36829;SDS011;22767;47.328;9.640;2022-10-18T14:35:29;10.48;;;3.30;;
36829;SDS011;22767;47.328;9.640;2022-10-18T14:38:16;4.82;;;2.80;;
36829;SDS011;22767;47.328;9.640;2022-10-18T14:41:06;7.18;;;3.17;;
36829;SDS011;22767;47.328;9.640;2022-10-18T14:43:55;6.65;;;2.90;;
36829;SDS011;22767;47.328;9.640;2022-10-18T14:47:01;9.30;;;3.15;;
36829;SDS011;22767;47.328;9.640;2022-10-18T14:49:48;7.50;;;3.67;;
36829;SDS011;22767;47.328;9.640;2022-10-18T14:52:35;7.15;;;3.13;;
36829;SDS011;22767;47.328;9.640;2022-10-18T14:55:23;5.63;;;3.03;;
36829;SDS011;22767;47.328;9.640;2022-10-18T14:58:13;5.75;;;2.63;;
36829;SDS011;22767;47.328;9.640;2022-10-18T15:01:00;6.07;;;2.45;;
36829;SDS011;22767;47.328;9.640;2022-10-18T15:03:46;7.40;;;3.20;;
36829;SDS011;22767;47.328;9.640;2022-10-18T15:06:33;5.43;;;3.08;;
36829;SDS011;22767;47.328;9.640;2022-10-18T15:09:20;10.15;;;2.72;;
36829;SDS011;22767;47.328;9.640;2022-10-18T15:12:10;4.57;;;2.88;;
36829;SDS011;22767;47.328;9.640;2022-10-18T15:14:59;6.40;;;3.10;;
36829;SDS011;22767;47.328;9.640;2022-10-18T15:17:46;8.52;;;2.63;;
36829;SDS011;22767;47.328;9.640;2022-10-18T15:20:34;3.85;;;2.58;;
36829;SDS011;22767;47.328;9.640;2022-10-18T15:23:24;8.23;;;3.50;;
36829;SDS011;22767;47.328;9.640;2022-10-18T15:26:11;7.40;;;2.78;;
36829;SDS011;22767;47.328;9.640;2022-10-18T15:28:59;7.40;;;3.72;;
36829;SDS011;22767;47.328;9.640;2022-10-18T15:31:46;5.70;;;2.75;;
36829;SDS011;22767;47.328;9.640;2022-10-18T15:34:33;9.80;;;3.53;;
36829;SDS011;22767;47.328;9.640;2022-10-18T15:37:29;9.15;;;4.15;;
36829;SDS011;22767;47.328;9.640;2022-10-18T15:43:48;11.50;;;4.45;;
36829;SDS011;22767;47.328;9.640;2022-10-18T15:46:27;7.53;;;3.55;;
36829;SDS011;22767;47.328;9.640;2022-10-18T15:54:59;8.00;;;3.00;;
36829;SDS011;22767;47.328;9.640;2022-10-18T15:57:46;8.32;;;3.60;;
36829;SDS011;22767;47.328;9.640;2022-10-18T16:00:32;8.05;;;3.70;;
36829;SDS011;22767;47.328;9.640;2022-10-18T16:03:19;6.47;;;2.88;;
36829;SDS011;22767;47.328;9.640;2022-10-18T16:06:07;4.68;;;3.20;;
36829;SDS011;22767;47.328;9.640;2022-10-18T16:08:54;13.15;;;3.13;;
36829;SDS011;22767;47.328;9.640;2022-10-18T16:11:40;7.07;;;2.67;;
36829;SDS011;22767;47.328;9.640;2022-10-18T16:14:27;7.18;;;3.05;;
36829;SDS011;22767;47.328;9.640;2022-10-18T16:17:14;7.57;;;3.10;;
36829;SDS011;22767;47.328;9.640;2022-10-18T16:20:01;7.18;;;3.70;;
36829;SDS011;22767;47.328;9.640;2022-10-18T16:22:48;8.20;;;4.05;;
36829;SDS011;22767;47.328;9.640;2022-10-18T16:25:34;5.53;;;2.70;;
36829;SDS011;22767;47.328;9.640;2022-10-18T16:28:22;9.65;;;3.40;;
36829;SDS011;22767;47.328;9.640;2022-10-18T16:31:09;9.50;;;3.30;;
36829;SDS011;22767;47.328;9.640;2022-10-18T16:33:57;9.35;;;3.30;;
36829;SDS011;22767;47.328;9.640;2022-10-18T16:36:44;9.98;;;3.20;;
36829;SDS011;22767;47.328;9.640;2022-10-18T16:39:30;5.72;;;3.13;;
36829;SDS011;22767;47.328;9.640;2022-10-18T16:42:19;11.27;;;2.90;;
36829;SDS011;22767;47.328;9.640;2022-10-18T16:45:05;13.98;;;3.20;;
36829;SDS011;22767;47.328;9.640;2022-10-18T16:47:52;6.50;;;2.97;;
36829;SDS011;22767;47.328;9.640;2022-10-18T16:50:38;6.38;;;2.58;;
36829;SDS011;22767;47.328;9.640;2022-10-18T16:53:25;6.00;;;3.20;;
36829;SDS011;22767;47.328;9.640;2022-10-18T16:56:16;10.77;;;3.15;;
36829;SDS011;22767;47.328;9.640;2022-10-18T16:59:03;7.47;;;3.00;;
36829;SDS011;22767;47.328;9.640;2022-10-18T17:01:49;11.10;;;3.20;;
36829;SDS011;22767;47.328;9.640;2022-10-18T17:04:35;9.95;;;3.28;;
36829;SDS011;22767;47.328;9.640;2022-10-18T17:07:23;10.10;;;2.95;;
36829;SDS011;22767;47.328;9.640;2022-10-18T17:10:11;10.35;;;2.35;;
36829;SDS011;22767;47.328;9.640;2022-10-18T17:12:58;7.45;;;2.50;;
36829;SDS011;22767;47.328;9.640;2022-10-18T17:15:44;7.80;;;3.00;;
36829;SDS011;22767;47.328;9.640;2022-10-18T17:18:31;9.52;;;3.22;;
36829;SDS011;22767;47.328;9.640;2022-10-18T17:21:18;8.80;;;3.47;;
36829;SDS011;22767;47.328;9.640;2022-10-18T17:24:04;10.00;;;3.38;;
36829;SDS011;22767;47.328;9.640;2022-10-18T17:26:51;10.38;;;4.13;;
36829;SDS011;22767;47.328;9.640;2022-10-18T17:29:38;8.73;;;3.72;;
36829;SDS011;22767;47.328;9.640;2022-10-18T17:32:25;9.77;;;4.20;;
36829;SDS011;22767;47.328;9.640;2022-10-18T17:35:12;8.73;;;4.15;;
36829;SDS011;22767;47.328;9.640;2022-10-18T17:37:58;10.00;;;3.97;;
36829;SDS011;22767;47.328;9.640;2022-10-18T17:40:45;8.75;;;3.60;;
36829;SDS011;22767;47.328;9.640;2022-10-18T17:43:32;8.05;;;3.67;;
36829;SDS011;22767;47.328;9.640;2022-10-18T17:46:18;10.20;;;3.63;;
36829;SDS011;22767;47.328;9.640;2022-10-18T17:49:05;10.27;;;3.90;;
36829;SDS011;22767;47.328;9.640;2022-10-18T17:51:52;12.18;;;3.70;;
36829;SDS011;22767;47.328;9.640;2022-10-18T17:54:39;14.80;;;4.03;;
36829;SDS011;22767;47.328;9.640;2022-10-18T17:57:25;16.35;;;4.28;;
36829;SDS011;22767;47.328;9.640;2022-10-18T18:00:12;20.45;;;4.53;;
36829;SDS011;22767;47.328;9.640;2022-10-18T18:03:00;9.07;;;3.80;;
36829;SDS011;22767;47.328;9.640;2022-10-18T18:05:47;8.10;;;3.70;;
36829;SDS011;22767;47.328;9.640;2022-10-18T18:08:33;11.50;;;4.53;;
36829;SDS011;22767;47.328;9.640;2022-10-18T18:11:20;11.40;;;5.53;;
36829;SDS011;22767;47.328;9.640;2022-10-18T18:14:07;7.85;;;4.00;;
36829;SDS011;22767;47.328;9.640;2022-10-18T18:16:54;12.77;;;5.18;;
36829;SDS011;22767;47.328;9.640;2022-10-18T18:19:40;8.73;;;4.50;;
36829;SDS011;22767;47.328;9.640;2022-10-18T18:22:27;6.55;;;3.20;;
36829;SDS011;22767;47.328;9.640;2022-10-18T18:25:14;9.10;;;3.17;;
36829;SDS011;22767;47.328;9.640;2022-10-18T18:28:00;8.63;;;3.42;;
36829;SDS011;22767;47.328;9.640;2022-10-18T18:30:47;11.52;;;4.32;;
36829;SDS011;22767;47.328;9.640;2022-10-18T18:33:34;9.30;;;5.07;;
36829;SDS011;22767;47.328;9.640;2022-10-18T18:36:21;14.52;;;7.53;;
36829;SDS011;22767;47.328;9.640;2022-10-18T18:42:24;15.50;;;6.15;;
36829;SDS011;22767;47.328;9.640;2022-10-18T18:45:11;8.45;;;4.53;;
36829;SDS011;22767;47.328;9.640;2022-10-18T18:47:58;9.10;;;5.38;;
36829;SDS011;22767;47.328;9.640;2022-10-18T18:50:45;6.35;;;4.30;;
36829;SDS011;22767;47.328;9.640;2022-10-18T18:53:37;8.10;;;3.80;;
36829;SDS011;22767;47.328;9.640;2022-10-18T18:56:25;9.05;;;4.10;;
36829;SDS011;22767;47.328;9.640;2022-10-18T18:59:13;9.73;;;4.10;;
36829;SDS011;22767;47.328;9.640;2022-10-18T19:02:01;10.88;;;4.45;;
36829;SDS011;22767;47.328;9.640;2022-10-18T19:04:48;8.63;;;3.63;;
36829;SDS011;22767;47.328;9.640;2022-10-18T19:07:35;12.20;;;3.15;;
36829;SDS011;22767;47.328;9.640;2022-10-18T19:10:22;9.75;;;3.60;;
36829;SDS011;22767;47.328;9.640;2022-10-18T19:13:09;11.38;;;3.42;;
36829;SDS011;22767;47.328;9.640;2022-10-18T19:21:57;8.60;;;3.47;;
36829;SDS011;22767;47.328;9.640;2022-10-18T19:24:44;8.13;;;4.47;;
36829;SDS011;22767;47.328;9.640;2022-10-18T19:27:31;12.15;;;5.18;;
36829;SDS011;22767;47.328;9.640;2022-10-18T19:30:18;6.65;;;4.63;;
36829;SDS011;22767;47.328;9.640;2022-10-18T19:33:04;8.20;;;3.95;;